Time;durP1;ratioP1;P1;durP2;ratioP2;P2;SDS_P1;SDS_P2;PMS_P1;PMS_P2;Temp;Humidity;BMP_temperature;BMP_pressure;BME280_temperature;BME280_humidity;BME280_pressure;Samples;Min_cycle;Max_cycle;Signal;HPM_P1;HPM_P2
2022/01/12 00:01:54;;;;;;;49.60;24.67;;;3.80;99.90;;;;;;5095806;28;20049;-73
2022/01/12 00:04:20;;;;;;;45.17;24.23;;;3.80;99.90;;;;;;5111282;28;20118;-72
2022/01/12 00:06:45;;;;;;;48.42;24.83;;;3.80;99.90;;;;;;5111270;28;20122;-72
2022/01/12 00:09:11;;;;;;;46.25;24.65;;;3.80;99.90;;;;;;5094749;28;20028;-72
2022/01/12 00:11:37;;;;;;;52.88;26.27;;;3.80;99.90;;;;;;5112595;28;20042;-72
2022/01/12 00:14:03;;;;;;;45.30;21.70;;;3.80;99.90;;;;;;5092972;28;20040;-72
2022/01/12 00:16:29;;;;;;;52.67;23.52;;;3.80;99.90;;;;;;5110455;28;20039;-72
2022/01/12 00:18:55;;;;;;;43.80;23.33;;;3.90;99.90;;;;;;5094414;28;20050;-72
2022/01/12 00:21:20;;;;;;;53.50;25.35;;;3.90;99.90;;;;;;5094585;28;20176;-72
2022/01/12 00:23:46;;;;;;;47.13;24.60;;;3.90;99.90;;;;;;5094444;28;20036;-72
2022/01/12 00:33:10;;;;;;;49.00;24.63;;;4.00;99.90;;;;;;5110583;28;20059;-72
2022/01/12 00:34:29;;;;;;;36.33;21.92;;;4.40;99.90;;;;;;5111713;28;20043;-72
2022/01/12 00:36:54;;;;;;;42.22;21.15;;;4.30;99.90;;;;;;5095079;28;20051;-72
2022/01/12 00:39:20;;;;;;;44.53;20.95;;;4.30;99.90;;;;;;5112312;28;20506;-72
2022/01/12 00:41:47;;;;;;;48.33;24.92;;;4.40;99.90;;;;;;5092543;28;20088;-72
2022/01/12 00:44:22;;;;;;;42.25;22.08;;;4.40;99.90;;;;;;5112142;28;20046;-72
2022/01/12 00:46:49;;;;;;;41.05;21.75;;;4.40;99.90;;;;;;5093024;28;20027;-72
2022/01/12 00:49:14;;;;;;;41.95;22.10;;;4.40;99.90;;;;;;5112516;28;20505;-72
2022/01/12 00:51:40;;;;;;;41.65;20.92;;;4.50;99.90;;;;;;5094397;28;20114;-72
2022/01/12 00:54:08;;;;;;;46.30;22.02;;;4.40;99.90;;;;;;5112099;28;20039;-72
2022/01/12 00:56:34;;;;;;;46.65;22.95;;;4.40;99.90;;;;;;5111082;28;20036;-72
2022/01/12 00:58:59;;;;;;;44.78;21.98;;;4.40;99.90;;;;;;5112070;28;20059;-72
2022/01/12 01:01:25;;;;;;;38.78;18.80;;;4.40;99.90;;;;;;5094263;28;20499;-72
2022/01/12 01:03:51;;;;;;;49.90;24.42;;;4.50;99.90;;;;;;5095050;28;20035;-73
2022/01/12 01:06:17;;;;;;;42.38;21.33;;;4.50;99.90;;;;;;5109405;28;20035;-72
2022/01/12 01:08:48;;;;;;;46.95;23.33;;;4.40;99.90;;;;;;5112044;28;20039;-72
2022/01/12 01:11:14;;;;;;;48.90;22.67;;;4.40;99.90;;;;;;5110985;28;20500;-72
2022/01/12 01:13:59;;;;;;;46.97;23.92;;;4.40;99.90;;;;;;5112241;28;20042;-72
2022/01/12 01:16:54;;;;;;;53.35;24.60;;;4.40;99.90;;;;;;5094464;28;20403;-72
2022/01/12 01:27:29;;;;;;;46.03;22.90;;;4.40;99.90;;;;;;5110426;28;20043;-72
2022/01/12 01:29:55;;;;;;;69.88;26.30;;;4.20;99.90;;;;;;5110916;28;20078;-72
2022/01/12 01:32:23;;;;;;;57.10;25.42;;;4.10;99.90;;;;;;5093261;28;20040;-72
2022/01/12 01:34:49;;;;;;;59.00;25.27;;;4.10;99.90;;;;;;5095437;28;20129;-72
2022/01/12 01:37:15;;;;;;;64.78;25.42;;;4.10;99.90;;;;;;5114498;28;20058;-72
2022/01/12 01:39:41;;;;;;;70.10;28.60;;;4.00;99.90;;;;;;5115505;28;20479;-72
2022/01/12 01:42:26;;;;;;;67.93;26.02;;;4.00;99.90;;;;;;5114481;28;20084;-72
2022/01/12 01:55:32;;;;;;;80.30;26.02;;;3.90;99.90;;;;;;5113052;28;20040;-72
2022/01/12 01:57:59;;;;;;;91.03;27.90;;;3.90;99.90;;;;;;5115017;28;20385;-72
2022/01/12 02:00:27;;;;;;;74.20;26.52;;;3.90;99.90;;;;;;5096115;28;20092;-72
2022/01/12 02:02:56;;;;;;;85.60;27.42;;;3.90;99.90;;;;;;5115104;28;20067;-72
2022/01/12 02:05:22;;;;;;;85.68;27.13;;;3.90;99.90;;;;;;5112839;28;20047;-72
2022/01/12 02:07:47;;;;;;;60.03;26.65;;;3.90;99.90;;;;;;5114305;28;20479;-72
2022/01/12 02:10:13;;;;;;;72.82;27.17;;;4.00;99.90;;;;;;5113960;28;20036;-72
2022/01/12 02:12:39;;;;;;;60.00;25.55;;;3.90;99.90;;;;;;5097902;28;20043;-72
2022/01/12 02:15:13;;;;;;;63.28;25.13;;;4.00;99.90;;;;;;5096664;28;20054;-72
2022/01/12 02:17:52;;;;;;;72.82;27.17;;;4.00;99.90;;;;;;5114658;28;20118;-72
2022/01/12 02:37:14;;;;;;;87.85;26.85;;;4.10;99.90;;;;;;5093662;28;20060;-72
2022/01/12 02:39:58;;;;;;;55.13;24.30;;;4.00;99.90;;;;;;5096468;28;20492;-72
2022/01/12 02:42:26;;;;;;;69.82;26.30;;;4.10;99.90;;;;;;5114234;28;20044;-72
2022/01/12 02:55:47;;;;;;;57.00;25.67;;;4.20;99.90;;;;;;5112975;28;20522;-72
2022/01/12 02:58:13;;;;;;;53.60;23.67;;;4.20;99.90;;;;;;5111215;28;20039;-72
2022/01/12 03:01:57;;;;;;;52.40;24.67;;;4.20;99.90;;;;;;5094849;28;20043;-72
2022/01/12 03:03:31;;;;;;;54.17;24.48;;;4.30;99.90;;;;;;5110055;28;20043;-72
2022/01/12 03:06:02;;;;;;;54.95;24.33;;;4.30;99.90;;;;;;5095755;28;20031;-72
2022/01/12 03:08:36;;;;;;;47.25;22.88;;;4.40;99.90;;;;;;5113763;28;20523;-72
2022/01/12 03:11:02;;;;;;;50.85;24.40;;;4.40;99.90;;;;;;5096106;28;20100;-71
2022/01/12 03:13:27;;;;;;;54.35;25.33;;;4.40;99.90;;;;;;5096593;28;20484;-72
2022/01/12 03:15:53;;;;;;;54.40;24.17;;;4.30;99.90;;;;;;5095634;28;20435;-72
2022/01/12 03:18:19;;;;;;;52.22;24.20;;;4.30;99.90;;;;;;5113403;28;20041;-72
2022/01/12 03:20:45;;;;;;;54.92;25.08;;;4.30;99.90;;;;;;5112601;28;20050;-72
2022/01/12 03:23:13;;;;;;;50.78;22.85;;;4.30;99.90;;;;;;5096562;28;20074;-72
2022/01/12 03:25:39;;;;;;;50.47;23.90;;;4.30;99.90;;;;;;5093874;28;20059;-72
2022/01/12 03:28:07;;;;;;;49.47;24.10;;;4.30;99.90;;;;;;5112566;28;20067;-72
2022/01/12 03:30:40;;;;;;;57.00;23.00;;;4.30;99.90;;;;;;5095270;28;20083;-72
2022/01/12 03:33:13;;;;;;;53.33;22.70;;;4.30;99.90;;;;;;5112457;28;20123;-72
2022/01/12 03:36:12;;;;;;;54.85;23.02;;;4.40;99.90;;;;;;5094431;28;20385;-72
2022/01/12 03:38:33;;;;;;;47.38;22.00;;;4.40;99.90;;;;;;5112410;28;20043;-72
2022/01/12 03:40:58;;;;;;;52.30;23.25;;;4.50;99.90;;;;;;5113098;28;20036;-72
2022/01/12 03:43:24;;;;;;;48.95;22.50;;;4.40;99.90;;;;;;5112252;28;20045;-72
2022/01/12 03:45:50;;;;;;;48.42;22.35;;;4.30;99.90;;;;;;5112182;28;20067;-72
2022/01/12 03:48:15;;;;;;;57.45;24.45;;;4.40;99.90;;;;;;5095993;28;20039;-72
2022/01/12 03:50:41;;;;;;;50.83;22.90;;;4.30;99.90;;;;;;5112178;28;20036;-72
2022/01/12 03:53:07;;;;;;;50.72;22.27;;;4.30;99.90;;;;;;5111944;28;20038;-72
2022/01/12 03:55:32;;;;;;;51.05;22.70;;;4.40;99.90;;;;;;5094926;28;20172;-72
2022/01/12 03:57:58;;;;;;;72.82;23.00;;;4.20;99.90;;;;;;5110749;28;20511;-72
2022/01/12 04:00:24;;;;;;;49.90;21.75;;;4.20;99.90;;;;;;5094986;28;20045;-72
2022/01/12 04:02:49;;;;;;;45.35;21.90;;;4.20;99.90;;;;;;5112127;28;20122;-72
2022/01/12 04:08:19;;;;;;;41.80;20.02;;;4.20;99.90;;;;;;5088993;28;20120;-72
2022/01/12 04:10:46;;;;;;;44.72;20.10;;;4.20;99.90;;;;;;5112940;28;20124;-72
2022/01/12 04:13:13;;;;;;;39.95;19.63;;;4.30;99.90;;;;;;5112012;28;20035;-72
2022/01/12 04:15:38;;;;;;;42.05;21.13;;;4.40;99.90;;;;;;5111379;28;20110;-72
2022/01/12 04:18:04;;;;;;;50.65;19.75;;;4.40;99.90;;;;;;5111653;28;20126;-72
2022/01/12 04:20:30;;;;;;;41.97;18.00;;;4.30;99.90;;;;;;5112581;28;20140;-72
2022/01/12 04:25:39;;;;;;;33.60;17.00;;;4.20;99.90;;;;;;5100350;28;20028;-72
2022/01/12 04:28:05;;;;;;;35.45;16.05;;;4.10;99.90;;;;;;5094905;28;20499;-72
2022/01/12 04:30:30;;;;;;;35.00;15.57;;;4.40;99.90;;;;;;5110602;28;20036;-72
2022/01/12 04:32:56;;;;;;;31.83;16.70;;;4.40;99.90;;;;;;5111334;28;20563;-72
2022/01/12 04:35:25;;;;;;;29.88;15.65;;;4.40;99.90;;;;;;5113143;28;20036;-72
2022/01/12 04:37:51;;;;;;;33.42;15.02;;;4.30;99.90;;;;;;5115189;28;20057;-72
2022/01/12 04:40:17;;;;;;;29.10;15.48;;;4.30;99.90;;;;;;5113161;28;20031;-72
2022/01/12 04:42:42;;;;;;;27.73;14.70;;;4.30;99.90;;;;;;5133116;28;20057;-72
2022/01/12 04:45:32;;;;;;;27.50;14.00;;;4.30;99.90;;;;;;5098513;28;20479;-72
2022/01/12 04:48:07;;;;;;;28.90;14.40;;;4.40;99.90;;;;;;5098725;28;20092;-72
2022/01/12 04:50:35;;;;;;;37.25;14.57;;;4.20;99.90;;;;;;5106744;28;20146;-72
2022/01/12 04:53:02;;;;;;;33.40;14.45;;;4.20;99.90;;;;;;5115804;28;20042;-72
2022/01/12 04:55:27;;;;;;;32.92;14.13;;;4.20;99.90;;;;;;5112584;28;20067;-72
2022/01/12 04:57:53;;;;;;;27.83;14.43;;;4.20;99.90;;;;;;5115465;28;20086;-72
2022/01/12 05:00:19;;;;;;;28.13;14.98;;;4.10;99.90;;;;;;5095515;28;20148;-72
2022/01/12 05:08:33;;;;;;;26.75;13.18;;;4.20;99.90;;;;;;5115060;28;20043;-72
2022/01/12 05:13:47;;;;;;;27.80;13.27;;;4.20;99.90;;;;;;5101809;27;20047;-72
2022/01/12 05:16:13;;;;;;;26.92;13.68;;;4.10;99.90;;;;;;5118412;27;20043;-72
2022/01/12 05:18:41;;;;;;;23.88;14.65;;;4.10;99.90;;;;;;5118441;27;20122;-71
2022/01/12 05:21:07;;;;;;;36.97;13.90;;;4.00;99.90;;;;;;5101215;27;20105;-71
2022/01/12 05:23:33;;;;;;;43.15;14.45;;;4.00;99.90;;;;;;5113621;27;20114;-72
2022/01/12 05:26:00;;;;;;;24.48;13.95;;;3.80;99.90;;;;;;5119092;27;20127;-71
2022/01/12 05:28:27;;;;;;;24.98;13.48;;;3.80;99.90;;;;;;5118154;27;20039;-72
2022/01/12 05:30:53;;;;;;;31.38;14.10;;;3.70;99.90;;;;;;5103564;27;20085;-72
2022/01/12 05:33:19;;;;;;;52.17;13.85;;;3.80;99.90;;;;;;5128454;27;20035;-72
2022/01/12 05:35:46;;;;;;;28.50;13.88;;;3.80;99.90;;;;;;5101865;27;20043;-71
2022/01/12 05:38:15;;;;;;;27.90;13.48;;;3.90;99.90;;;;;;5101334;27;20048;-72
2022/01/12 05:40:47;;;;;;;24.55;13.95;;;4.10;99.90;;;;;;5118827;27;20034;-71
2022/01/12 05:43:20;;;;;;;24.52;13.95;;;4.00;99.90;;;;;;5100951;27;20039;-71
2022/01/12 05:45:47;;;;;;;22.35;14.05;;;4.00;99.90;;;;;;5101684;27;20035;-71
2022/01/12 05:50:40;;;;;;;24.73;13.57;;;4.00;99.90;;;;;;5118673;27;20051;-71
2022/01/12 05:53:06;;;;;;;26.83;13.68;;;4.00;99.90;;;;;;5100751;27;20039;-71
2022/01/12 05:55:32;;;;;;;27.10;13.02;;;3.90;99.90;;;;;;5118598;27;20047;-71
2022/01/12 05:57:57;;;;;;;22.88;12.45;;;3.90;99.90;;;;;;5099907;27;20058;-72
2022/01/12 06:00:25;;;;;;;22.98;13.27;;;4.00;99.90;;;;;;5100677;27;20091;-71
2022/01/12 06:02:51;;;;;;;23.75;14.02;;;3.90;99.90;;;;;;5108739;27;20043;-72
2022/01/12 06:05:20;;;;;;;25.27;14.05;;;3.90;99.90;;;;;;5100984;27;20031;-72
2022/01/12 06:07:47;;;;;;;21.67;12.88;;;3.90;99.90;;;;;;5100470;27;20513;-72
2022/01/12 06:10:13;;;;;;;22.20;13.55;;;3.90;99.90;;;;;;5118327;27;20039;-72
2022/01/12 06:12:39;;;;;;;22.10;12.65;;;3.90;99.90;;;;;;5117293;27;20035;-72
2022/01/12 06:15:06;;;;;;;25.48;12.82;;;3.90;99.90;;;;;;5118177;27;20513;-71
2022/01/12 06:17:32;;;;;;;26.92;13.85;;;3.80;99.90;;;;;;5117094;27;20039;-72
2022/01/12 06:19:58;;;;;;;24.65;14.23;;;3.70;99.90;;;;;;5100433;27;20552;-72
2022/01/12 06:22:24;;;;;;;24.38;12.23;;;3.70;99.90;;;;;;5117119;27;20028;-72
2022/01/12 06:24:50;;;;;;;21.58;13.00;;;3.60;99.90;;;;;;5101009;27;20122;-72
2022/01/12 06:27:18;;;;;;;21.10;13.10;;;3.70;99.90;;;;;;5099893;27;20039;-72
2022/01/12 06:29:51;;;;;;;23.35;13.60;;;3.70;99.90;;;;;;5117970;27;20050;-72
2022/01/12 06:32:17;;;;;;;22.13;12.95;;;3.70;99.90;;;;;;5131010;27;20043;-72
2022/01/12 06:34:43;;;;;;;19.70;12.52;;;3.70;99.90;;;;;;5100862;27;20122;-72
2022/01/12 06:37:09;;;;;;;21.17;13.20;;;3.70;99.90;;;;;;5116441;27;20643;-71
2022/01/12 06:39:34;;;;;;;22.95;12.73;;;3.60;99.90;;;;;;5117330;27;20038;-72
2022/01/12 06:42:00;;;;;;;23.55;13.75;;;3.70;99.90;;;;;;5115767;27;20160;-72
2022/01/12 06:44:26;;;;;;;21.92;13.02;;;3.70;99.90;;;;;;5117783;27;20129;-72
2022/01/12 06:46:53;;;;;;;20.55;12.23;;;3.60;99.90;;;;;;5099890;27;20475;-72
2022/01/12 06:49:19;;;;;;;20.42;12.32;;;3.60;99.90;;;;;;5117807;27;20383;-71
2022/01/12 06:51:46;;;;;;;21.42;12.25;;;3.60;99.90;;;;;;5099622;27;20031;-71
2022/01/12 06:54:13;;;;;;;20.30;11.02;;;3.70;99.90;;;;;;5117027;27;20459;-72
2022/01/12 06:56:39;;;;;;;19.10;12.20;;;3.70;99.90;;;;;;5116159;27;20062;-71
2022/01/12 06:59:06;;;;;;;19.33;11.23;;;3.70;99.90;;;;;;5114968;27;20139;-71
2022/01/12 07:01:32;;;;;;;18.77;11.18;;;3.60;99.90;;;;;;5109761;27;20552;-72
2022/01/12 07:03:58;;;;;;;20.08;11.30;;;3.60;99.90;;;;;;5089497;27;20074;-71
2022/01/12 07:06:24;;;;;;;17.73;11.38;;;3.40;99.90;;;;;;5106780;27;20142;-71
2022/01/12 07:08:50;;;;;;;17.05;10.95;;;3.50;99.90;;;;;;5094967;27;20535;-72
2022/01/12 07:11:16;;;;;;;18.83;11.68;;;3.50;99.90;;;;;;5076415;27;20071;-72
2022/01/12 07:13:41;;;;;;;18.77;11.20;;;3.50;99.90;;;;;;5072701;27;20168;-72
2022/01/12 07:16:07;;;;;;;18.33;11.43;;;3.50;99.90;;;;;;5088616;27;20035;-72
2022/01/12 07:18:33;;;;;;;19.40;11.93;;;3.40;99.90;;;;;;5088552;27;20039;-72
2022/01/12 07:20:59;;;;;;;18.65;11.55;;;3.30;99.90;;;;;;5072833;27;20101;-72
2022/01/12 07:23:26;;;;;;;20.73;11.40;;;3.30;99.90;;;;;;5103582;27;20039;-72
2022/01/12 07:25:53;;;;;;;19.50;11.05;;;3.30;99.90;;;;;;5091145;27;20039;-72
2022/01/12 07:28:19;;;;;;;18.08;11.70;;;3.20;99.90;;;;;;5071202;27;20133;-72
2022/01/12 07:30:45;;;;;;;17.60;10.70;;;3.10;99.90;;;;;;5116139;27;20038;-72
2022/01/12 07:33:13;;;;;;;17.75;10.95;;;3.20;99.90;;;;;;5074906;27;21545;-72
2022/01/12 07:35:39;;;;;;;17.75;11.07;;;3.20;99.90;;;;;;5104698;27;20110;-71
2022/01/12 07:38:05;;;;;;;18.70;11.20;;;3.20;99.90;;;;;;5072695;27;20047;-72
2022/01/12 07:40:30;;;;;;;19.13;10.82;;;3.20;99.90;;;;;;5087262;27;20031;-72
2022/01/12 07:42:56;;;;;;;17.70;10.57;;;3.10;99.90;;;;;;5088731;27;20039;-72
2022/01/12 07:45:22;;;;;;;16.88;10.02;;;3.00;99.90;;;;;;5088699;27;20042;-72
2022/01/12 07:47:48;;;;;;;15.70;9.77;;;3.10;99.90;;;;;;5078894;27;20126;-72
2022/01/12 07:50:14;;;;;;;16.00;10.27;;;3.10;99.90;;;;;;5088545;27;20070;-72
2022/01/12 07:52:40;;;;;;;14.32;8.90;;;3.10;99.90;;;;;;5091338;27;20138;-72
2022/01/12 07:55:06;;;;;;;15.38;9.15;;;3.30;99.90;;;;;;5087668;27;20050;-72
2022/01/12 07:57:32;;;;;;;17.08;9.00;;;3.30;99.90;;;;;;5072085;27;20095;-72
2022/01/12 07:59:58;;;;;;;16.73;9.80;;;3.40;99.90;;;;;;5088000;27;21425;-72
2022/01/12 08:02:24;;;;;;;16.73;9.52;;;3.40;99.90;;;;;;5092922;27;20039;-72
2022/01/12 08:04:49;;;;;;;16.42;9.45;;;3.30;99.90;;;;;;5099960;27;20046;-72
2022/01/12 08:07:15;;;;;;;19.52;9.85;;;3.40;99.90;;;;;;5115712;27;20110;-72
2022/01/12 08:09:42;;;;;;;16.17;9.73;;;3.50;99.90;;;;;;5089605;27;20046;-72
2022/01/12 08:12:08;;;;;;;15.55;9.40;;;3.40;99.90;;;;;;5071997;27;20047;-72
2022/01/12 08:14:34;;;;;;;15.63;10.00;;;3.40;99.90;;;;;;5087643;28;20035;-72
2022/01/12 08:17:00;;;;;;;15.50;9.20;;;3.40;99.90;;;;;;5071354;27;20046;-72
2022/01/12 08:19:26;;;;;;;16.10;9.00;;;3.40;99.90;;;;;;5088362;27;20122;-72
2022/01/12 08:21:52;;;;;;;14.90;8.70;;;3.40;99.90;;;;;;5078208;27;20114;-72
2022/01/12 08:24:18;;;;;;;14.80;8.68;;;3.40;99.90;;;;;;5097090;28;20376;-72
2022/01/12 08:26:44;;;;;;;14.52;9.30;;;3.30;99.90;;;;;;5091290;28;20043;-72
2022/01/12 08:29:13;;;;;;;15.27;8.65;;;3.40;99.90;;;;;;5071545;28;20405;-72
2022/01/12 08:31:39;;;;;;;16.73;8.68;;;3.30;99.90;;;;;;5087451;28;20035;-72
2022/01/12 08:34:04;;;;;;;14.90;8.18;;;3.40;99.90;;;;;;5087470;28;20050;-72
2022/01/12 08:36:30;;;;;;;20.17;9.35;;;3.60;99.90;;;;;;5079586;28;20063;-72
2022/01/12 08:38:57;;;;;;;23.13;8.88;;;3.50;99.90;;;;;;5050456;28;20170;-72
2022/01/12 08:41:23;;;;;;;20.10;8.85;;;3.40;99.90;;;;;;5049859;28;20044;-72
2022/01/12 08:43:49;;;;;;;18.48;7.95;;;3.30;99.90;;;;;;5052570;28;20455;-72
2022/01/12 08:46:15;;;;;;;15.88;7.05;;;3.40;99.90;;;;;;5051905;28;20044;-72
2022/01/12 08:48:40;;;;;;;22.98;7.88;;;3.40;99.90;;;;;;5052981;28;22138;-72
2022/01/12 08:51:06;;;;;;;17.83;6.28;;;3.40;99.90;;;;;;5052080;28;20044;-74
2022/01/12 08:53:31;;;;;;;11.70;6.60;;;3.40;99.90;;;;;;5078594;28;20044;-72
2022/01/12 08:55:57;;;;;;;18.00;7.25;;;3.40;99.90;;;;;;5090800;28;20114;-72
2022/01/12 08:58:22;;;;;;;16.58;6.32;;;3.50;99.90;;;;;;5071857;28;20068;-72
2022/01/12 09:00:48;;;;;;;14.20;5.95;;;3.60;99.90;;;;;;5074124;28;20044;-71
2022/01/12 09:03:14;;;;;;;11.57;5.85;;;3.70;99.90;;;;;;5070228;28;20036;-72
2022/01/12 09:05:40;;;;;;;17.08;7.15;;;3.70;99.90;;;;;;5051662;28;20090;-72
2022/01/12 09:08:06;;;;;;;13.15;5.90;;;3.70;99.90;;;;;;5063829;28;20074;-72
2022/01/12 09:10:32;;;;;;;17.55;7.07;;;3.80;99.90;;;;;;5063860;28;20113;-72
2022/01/12 09:12:59;;;;;;;16.27;6.28;;;3.70;99.90;;;;;;5068950;28;20620;-72
2022/01/12 09:15:25;;;;;;;21.63;7.82;;;3.70;99.90;;;;;;5056203;28;20040;-72
2022/01/12 09:17:56;;;;;;;18.83;7.93;;;3.80;99.90;;;;;;5058298;28;20048;-72
2022/01/12 09:20:22;;;;;;;23.10;7.70;;;3.90;99.90;;;;;;5052338;28;20057;-72
2022/01/12 09:22:48;;;;;;;22.15;8.45;;;3.90;99.90;;;;;;5069007;28;20086;-72
2022/01/12 09:25:14;;;;;;;19.85;7.20;;;3.90;99.90;;;;;;5057450;28;20486;-72
2022/01/12 09:27:40;;;;;;;22.30;7.75;;;3.90;99.90;;;;;;5057606;28;20037;-72
2022/01/12 09:30:09;;;;;;;28.55;8.48;;;3.90;99.90;;;;;;5055002;28;20066;-72
2022/01/12 09:32:35;;;;;;;25.27;8.02;;;3.90;99.90;;;;;;5068883;28;20044;-72
2022/01/12 09:35:01;;;;;;;21.77;7.95;;;3.90;99.90;;;;;;5068504;28;20097;-72
2022/01/12 09:37:27;;;;;;;20.30;7.03;;;4.00;99.90;;;;;;5078757;28;20579;-72
2022/01/12 09:39:53;;;;;;;18.55;7.82;;;4.00;99.90;;;;;;5060942;28;20051;-72
2022/01/12 09:42:19;;;;;;;29.15;6.97;;;4.00;99.90;;;;;;5073695;28;20040;-72
2022/01/12 09:44:47;;;;;;;25.38;7.50;;;4.10;99.90;;;;;;5097866;27;20039;-72
2022/01/12 09:47:13;;;;;;;24.52;7.10;;;4.10;99.90;;;;;;5068327;28;20040;-72
2022/01/12 09:49:40;;;;;;;16.65;6.55;;;4.20;99.90;;;;;;5095494;28;20043;-72
2022/01/12 09:52:06;;;;;;;20.65;6.97;;;4.20;99.90;;;;;;5095143;28;20071;-72
2022/01/12 09:54:32;;;;;;;17.15;6.80;;;4.20;99.90;;;;;;5077901;28;20488;-72
2022/01/12 09:56:57;;;;;;;21.02;6.85;;;4.20;99.90;;;;;;5063203;28;20504;-72
2022/01/12 09:59:24;;;;;;;26.85;7.93;;;4.20;99.90;;;;;;5068189;28;20036;-72
2022/01/12 10:01:51;;;;;;;17.95;6.35;;;4.20;99.90;;;;;;5089631;28;20134;-72
2022/01/12 10:04:22;;;;;;;13.88;5.53;;;4.40;99.90;;;;;;5095045;27;20040;-72
2022/01/12 10:06:56;;;;;;;14.80;5.57;;;4.50;99.90;;;;;;5097598;27;20032;-72
2022/01/12 10:09:30;;;;;;;14.88;6.10;;;4.50;99.90;;;;;;5062672;28;20480;-72
2022/01/12 10:12:00;;;;;;;19.70;5.72;;;4.60;99.90;;;;;;5103966;28;20500;-72
2022/01/12 10:14:42;;;;;;;18.85;5.93;;;4.60;99.90;;;;;;5076096;28;20166;-72
2022/01/12 10:17:08;;;;;;;19.90;6.28;;;4.50;99.90;;;;;;5084052;28;20047;-72
2022/01/12 10:19:34;;;;;;;28.67;6.93;;;4.50;99.90;;;;;;5068165;28;20681;-72
2022/01/12 10:22:03;;;;;;;13.52;5.80;;;4.60;99.90;;;;;;5067644;28;20063;-72
2022/01/12 10:24:30;;;;;;;16.52;5.57;;;4.70;99.90;;;;;;5067848;28;20039;-72
2022/01/12 10:26:56;;;;;;;13.10;5.68;;;4.80;99.90;;;;;;5096145;27;20079;-72
2022/01/12 10:29:26;;;;;;;10.32;5.15;;;4.90;99.90;;;;;;5055724;28;20039;-72
2022/01/12 10:31:55;;;;;;;11.90;5.68;;;5.00;99.90;;;;;;5063749;28;20039;-72
2022/01/12 10:34:24;;;;;;;14.70;6.00;;;4.90;99.90;;;;;;5084120;28;20048;-72
2022/01/12 10:36:51;;;;;;;19.63;6.15;;;4.80;99.90;;;;;;5052928;28;20726;-72
2022/01/12 10:39:18;;;;;;;19.48;7.18;;;4.80;99.90;;;;;;5058476;28;20427;-72
2022/01/12 10:42:02;;;;;;;14.45;5.70;;;4.70;99.90;;;;;;5085401;27;20366;-72
2022/01/12 10:44:37;;;;;;;17.23;6.53;;;4.80;99.90;;;;;;5057228;28;20051;-72
2022/01/12 10:47:16;;;;;;;22.90;6.82;;;4.80;99.90;;;;;;5077540;28;20555;-72
2022/01/12 10:49:53;;;;;;;14.40;6.13;;;4.90;99.90;;;;;;5053603;28;20037;-72
2022/01/12 10:52:20;;;;;;;20.73;7.20;;;4.90;99.90;;;;;;5072295;28;20484;-72
2022/01/12 10:54:48;;;;;;;16.77;6.28;;;4.90;99.90;;;;;;5067809;28;20036;-72
2022/01/12 10:57:18;;;;;;;18.35;7.00;;;4.90;99.90;;;;;;5056470;28;20108;-72
2022/01/12 10:59:58;;;;;;;13.82;6.32;;;4.90;99.90;;;;;;5053207;28;20044;-72
2022/01/12 11:02:23;;;;;;;14.32;5.82;;;5.00;99.90;;;;;;5076189;28;20404;-72
2022/01/12 11:04:49;;;;;;;15.75;6.00;;;5.10;99.90;;;;;;5087264;28;20035;-72
2022/01/12 11:07:14;;;;;;;28.77;7.20;;;5.20;99.90;;;;;;5081663;28;20183;-72
2022/01/12 11:09:40;;;;;;;14.90;5.70;;;5.10;99.90;;;;;;5051296;28;20111;-72
2022/01/12 11:12:06;;;;;;;14.43;5.40;;;5.20;99.90;;;;;;5054830;28;20040;-80
2022/01/12 11:14:32;;;;;;;20.05;6.15;;;5.40;99.90;;;;;;5083526;28;20068;-73
2022/01/12 11:16:58;;;;;;;17.20;4.82;;;5.30;99.90;;;;;;5069479;28;20691;-73
2022/01/12 11:19:24;;;;;;;13.20;5.10;;;5.40;99.90;;;;;;5091911;28;20052;-73
2022/01/12 11:22:08;;;;;;;15.27;5.40;;;5.30;99.90;;;;;;5096413;27;20068;-73
2022/01/12 11:24:34;;;;;;;10.60;4.80;;;5.20;99.90;;;;;;5102061;27;20034;-73
2022/01/12 11:27:03;;;;;;;11.32;5.00;;;5.40;99.90;;;;;;5065935;28;20089;-73
2022/01/12 11:29:34;;;;;;;11.93;5.45;;;5.50;99.90;;;;;;5084978;28;20399;-73
2022/01/12 11:32:05;;;;;;;13.82;5.57;;;5.50;99.90;;;;;;5066365;28;20036;-73
2022/01/12 11:34:31;;;;;;;15.40;4.90;;;5.60;99.90;;;;;;5087318;28;20032;-73
2022/01/12 11:36:56;;;;;;;15.88;5.55;;;5.70;99.90;;;;;;5088178;28;20116;-73
2022/01/12 11:39:22;;;;;;;20.33;6.80;;;5.60;99.90;;;;;;5094163;28;20040;-73
2022/01/12 11:41:48;;;;;;;14.10;5.20;;;5.60;99.90;;;;;;5113329;28;20075;-73
2022/01/12 11:44:16;;;;;;;14.95;5.68;;;5.80;99.90;;;;;;5093084;28;20035;-73
2022/01/12 11:46:50;;;;;;;18.90;5.88;;;5.80;99.90;;;;;;5110664;28;20028;-73
2022/01/12 11:49:31;;;;;;;18.23;6.40;;;5.80;99.90;;;;;;5084330;28;20046;-73
2022/01/12 11:51:58;;;;;;;17.33;6.15;;;5.70;99.90;;;;;;5106903;28;20056;-73
2022/01/12 11:54:36;;;;;;;15.25;6.07;;;5.70;99.90;;;;;;5112281;28;20047;-73
2022/01/12 11:57:11;;;;;;;17.92;7.20;;;5.60;99.90;;;;;;5094456;28;20069;-73
2022/01/12 11:59:53;;;;;;;21.10;6.53;;;5.70;99.90;;;;;;5093305;28;20042;-73
2022/01/12 12:02:20;;;;;;;18.30;6.20;;;5.70;99.90;;;;;;5093383;28;20085;-73
2022/01/12 12:04:55;;;;;;;11.55;4.03;;;5.70;99.90;;;;;;5090206;28;20342;-73
2022/01/12 12:07:25;;;;;;;14.73;5.47;;;5.90;99.90;;;;;;5092307;28;20093;-73
2022/01/12 12:09:54;;;;;;;20.98;6.45;;;5.90;99.90;;;;;;5109352;28;20028;-73
2022/01/12 12:12:22;;;;;;;16.63;5.82;;;5.70;99.90;;;;;;5110646;28;20063;-73
2022/01/12 12:14:50;;;;;;;19.45;6.68;;;5.80;99.90;;;;;;5095375;28;20043;-73
2022/01/12 12:17:17;;;;;;;23.42;6.85;;;5.80;99.90;;;;;;5094285;28;20042;-73
2022/01/12 12:19:47;;;;;;;22.02;6.22;;;5.80;99.90;;;;;;5092386;28;20044;-73
2022/01/12 12:22:21;;;;;;;28.05;7.57;;;5.80;99.90;;;;;;5090034;28;20127;-73
2022/01/12 12:24:59;;;;;;;25.75;7.38;;;5.80;99.90;;;;;;5092615;28;20035;-73
2022/01/12 12:27:28;;;;;;;27.92;7.28;;;5.80;99.90;;;;;;5112522;28;20071;-73
2022/01/12 12:29:54;;;;;;;19.52;6.85;;;5.70;99.90;;;;;;5089249;28;20043;-73
2022/01/12 12:32:31;;;;;;;20.90;6.20;;;5.70;99.90;;;;;;5091837;28;20036;-73
2022/01/12 12:35:00;;;;;;;19.85;7.13;;;5.70;99.90;;;;;;5110242;28;20381;-73
2022/01/12 12:37:34;;;;;;;29.00;7.70;;;5.70;99.90;;;;;;5094744;28;20047;-73
2022/01/12 12:40:31;;;;;;;27.17;7.75;;;5.70;99.90;;;;;;5109891;28;20040;-73
2022/01/12 12:43:20;;;;;;;28.83;9.18;;;5.70;99.90;;;;;;5083929;28;20377;-73
2022/01/12 12:45:52;;;;;;;28.80;9.27;;;5.70;99.90;;;;;;5102596;28;20114;-73
2022/01/12 12:48:20;;;;;;;29.52;7.90;;;5.70;99.90;;;;;;5094263;28;20038;-73
2022/01/12 12:50:48;;;;;;;23.73;7.78;;;5.70;99.90;;;;;;5094530;28;20126;-73
2022/01/12 12:53:14;;;;;;;23.05;7.30;;;5.70;99.90;;;;;;5094402;28;20039;-73
2022/01/12 12:55:44;;;;;;;20.30;6.80;;;5.80;99.90;;;;;;5093043;28;20042;-73
2022/01/12 12:58:10;;;;;;;19.55;7.75;;;6.00;99.90;;;;;;5100397;28;20071;-73
2022/01/12 13:00:37;;;;;;;27.33;8.23;;;6.00;99.90;;;;;;5102114;28;20036;-73
2022/01/12 13:03:04;;;;;;;34.67;9.15;;;5.90;99.90;;;;;;5102117;28;20035;-73
2022/01/12 13:05:38;;;;;;;25.33;8.93;;;5.80;99.90;;;;;;5109253;28;20547;-73
2022/01/12 13:08:06;;;;;;;27.13;8.13;;;5.80;99.90;;;;;;5093691;28;20047;-73
2022/01/12 13:10:32;;;;;;;22.95;8.60;;;5.90;99.90;;;;;;5092450;28;20077;-73
2022/01/12 13:13:01;;;;;;;20.23;7.50;;;5.90;99.90;;;;;;5108500;28;20042;-73
2022/01/12 13:15:34;;;;;;;25.63;8.10;;;6.00;99.90;;;;;;5111459;28;20075;-73
2022/01/12 13:18:04;;;;;;;24.08;8.07;;;6.00;99.90;;;;;;5110978;28;20036;-73
2022/01/12 13:23:21;;;;;;;23.38;8.02;;;5.80;99.90;;;;;;5095961;28;20047;-73
2022/01/12 13:25:47;;;;;;;22.92;8.07;;;5.80;99.90;;;;;;5099080;28;20035;-73
2022/01/12 13:28:13;;;;;;;25.67;9.13;;;6.00;99.90;;;;;;5117839;28;20040;-73
2022/01/12 13:30:58;;;;;;;16.50;6.57;;;6.10;99.90;;;;;;5095156;28;20450;-73
2022/01/12 13:33:36;;;;;;;23.65;8.18;;;6.30;99.90;;;;;;5117966;27;20055;-73
2022/01/12 13:36:22;;;;;;;27.38;8.57;;;6.10;99.90;;;;;;5094501;28;20565;-73
2022/01/12 13:38:54;;;;;;;21.15;7.95;;;5.90;99.90;;;;;;5114285;28;20044;-73
2022/01/12 13:41:22;;;;;;;;;;;5.90;99.90;;;;;;5096106;27;20043;-73
2022/01/12 13:43:54;;;;;;;22.52;7.47;;;5.90;99.90;;;;;;5115587;28;19938;-72
2022/01/12 13:46:28;;;;;;;;;;;6.00;99.90;;;;;;5114966;28;20035;-72
2022/01/12 13:51:51;;;;;;;21.08;8.50;;;6.20;99.90;;;;;;5104303;28;20039;-72
2022/01/12 13:54:16;;;;;;;20.60;8.75;;;6.10;99.90;;;;;;5086165;28;20040;-72
2022/01/12 13:56:53;;;;;;;24.35;9.43;;;6.10;99.90;;;;;;5111601;28;20097;-72
2022/01/12 13:59:20;;;;;;;24.77;9.48;;;6.10;99.90;;;;;;5096928;28;20487;-72
2022/01/12 14:01:47;;;;;;;20.17;8.95;;;6.10;99.90;;;;;;5094054;28;20040;-72
2022/01/12 14:04:24;;;;;;;18.75;7.78;;;6.00;99.90;;;;;;5107918;28;20035;-72